sensor_id;sensor_type;location;lat;lon;timestamp;temperature;humidity
54680;DHT22;40578;53.178;5.846;2023-03-23T00:01:11;10.10;99.90
54680;DHT22;40578;53.178;5.846;2023-03-23T00:03:38;10.20;99.90
54680;DHT22;40578;53.178;5.846;2023-03-23T00:06:04;10.70;99.90
54680;DHT22;40578;53.178;5.846;2023-03-23T00:08:32;10.20;99.90
54680;DHT22;40578;53.178;5.846;2023-03-23T00:10:58;10.20;99.90
54680;DHT22;40578;53.178;5.846;2023-03-23T00:13:27;10.40;99.90
54680;DHT22;40578;53.178;5.846;2023-03-23T00:15:52;10.30;99.90
54680;DHT22;40578;53.178;5.846;2023-03-23T00:18:18;10.20;99.90
54680;DHT22;40578;53.178;5.846;2023-03-23T00:20:51;10.30;99.90
54680;DHT22;40578;53.178;5.846;2023-03-23T00:23:18;10.50;99.90
54680;DHT22;40578;53.178;5.846;2023-03-23T00:25:47;10.20;99.90
54680;DHT22;40578;53.178;5.846;2023-03-23T00:28:14;10.20;99.90
54680;DHT22;40578;53.178;5.846;2023-03-23T00:30:40;10.20;99.90
54680;DHT22;40578;53.178;5.846;2023-03-23T00:33:07;10.30;99.90
54680;DHT22;40578;53.178;5.846;2023-03-23T00:35:33;10.30;99.90
54680;DHT22;40578;53.178;5.846;2023-03-23T00:38:00;10.20;99.90
54680;DHT22;40578;53.178;5.846;2023-03-23T00:40:25;10.30;99.90
54680;DHT22;40578;53.178;5.846;2023-03-23T00:42:51;10.40;99.90
54680;DHT22;40578;53.178;5.846;2023-03-23T00:45:17;10.80;99.90
54680;DHT22;40578;53.178;5.846;2023-03-23T00:47:42;10.30;99.90
54680;DHT22;40578;53.178;5.846;2023-03-23T00:50:12;10.30;99.90
54680;DHT22;40578;53.178;5.846;2023-03-23T00:52:39;11.10;99.90
54680;DHT22;40578;53.178;5.846;2023-03-23T00:55:05;10.60;99.90
54680;DHT22;40578;53.178;5.846;2023-03-23T00:57:31;10.20;99.90
54680;DHT22;40578;53.178;5.846;2023-03-23T00:59:56;10.80;99.90
54680;DHT22;40578;53.178;5.846;2023-03-23T01:02:22;10.10;99.90
54680;DHT22;40578;53.178;5.846;2023-03-23T01:04:50;10.60;99.90
54680;DHT22;40578;53.178;5.846;2023-03-23T01:07:18;10.10;99.90
54680;DHT22;40578;53.178;5.846;2023-03-23T01:09:43;10.10;99.90
54680;DHT22;40578;53.178;5.846;2023-03-23T01:12:10;10.10;99.90
54680;DHT22;40578;53.178;5.846;2023-03-23T01:14:35;11.40;99.90
54680;DHT22;40578;53.178;5.846;2023-03-23T01:17:01;10.20;99.90
54680;DHT22;40578;53.178;5.846;2023-03-23T01:19:26;10.40;99.90
54680;DHT22;40578;53.178;5.846;2023-03-23T01:21:52;10.50;99.90
54680;DHT22;40578;53.178;5.846;2023-03-23T01:24:17;11.20;99.90
54680;DHT22;40578;53.178;5.846;2023-03-23T01:26:43;10.50;99.90
54680;DHT22;40578;53.178;5.846;2023-03-23T01:29:08;10.40;99.90
54680;DHT22;40578;53.178;5.846;2023-03-23T01:31:34;10.50;99.90
54680;DHT22;40578;53.178;5.846;2023-03-23T01:34:02;10.30;99.90
54680;DHT22;40578;53.178;5.846;2023-03-23T01:36:28;10.40;99.90
54680;DHT22;40578;53.178;5.846;2023-03-23T01:38:58;10.30;99.90
54680;DHT22;40578;53.178;5.846;2023-03-23T01:41:24;10.40;99.90
54680;DHT22;40578;53.178;5.846;2023-03-23T01:43:53;11.00;99.90
54680;DHT22;40578;53.178;5.846;2023-03-23T01:46:19;10.40;99.90
54680;DHT22;40578;53.178;5.846;2023-03-23T01:48:47;10.40;99.90
54680;DHT22;40578;53.178;5.846;2023-03-23T01:51:14;10.30;99.90
54680;DHT22;40578;53.178;5.846;2023-03-23T01:53:51;10.30;99.90
54680;DHT22;40578;53.178;5.846;2023-03-23T01:56:20;10.40;99.90
54680;DHT22;40578;53.178;5.846;2023-03-23T01:58:50;11.70;99.90
54680;DHT22;40578;53.178;5.846;2023-03-23T02:01:16;10.40;99.90
54680;DHT22;40578;53.178;5.846;2023-03-23T02:03:43;10.40;99.90
54680;DHT22;40578;53.178;5.846;2023-03-23T02:06:09;10.40;99.90
54680;DHT22;40578;53.178;5.846;2023-03-23T02:08:35;10.40;99.90
54680;DHT22;40578;53.178;5.846;2023-03-23T02:11:00;10.40;99.90
54680;DHT22;40578;53.178;5.846;2023-03-23T02:13:26;10.40;99.90
54680;DHT22;40578;53.178;5.846;2023-03-23T02:16:01;10.80;99.90
54680;DHT22;40578;53.178;5.846;2023-03-23T02:21:16;10.40;99.90
54680;DHT22;40578;53.178;5.846;2023-03-23T02:26:33;10.30;99.90
54680;DHT22;40578;53.178;5.846;2023-03-23T02:34:14;10.40;99.90
54680;DHT22;40578;53.178;5.846;2023-03-23T02:37:02;10.40;99.90
54680;DHT22;40578;53.178;5.846;2023-03-23T02:39:29;10.40;99.90
54680;DHT22;40578;53.178;5.846;2023-03-23T02:41:57;10.40;99.90
54680;DHT22;40578;53.178;5.846;2023-03-23T02:44:23;11.70;99.90
54680;DHT22;40578;53.178;5.846;2023-03-23T02:46:50;10.40;99.90
54680;DHT22;40578;53.178;5.846;2023-03-23T02:49:16;10.40;99.90
54680;DHT22;40578;53.178;5.846;2023-03-23T02:51:43;10.40;99.90
54680;DHT22;40578;53.178;5.846;2023-03-23T02:54:09;10.50;99.90
54680;DHT22;40578;53.178;5.846;2023-03-23T02:56:36;10.50;99.90
54680;DHT22;40578;53.178;5.846;2023-03-23T02:59:02;10.40;99.90
54680;DHT22;40578;53.178;5.846;2023-03-23T03:04:05;10.40;99.90
54680;DHT22;40578;53.178;5.846;2023-03-23T03:09:19;10.40;99.90
54680;DHT22;40578;53.178;5.846;2023-03-23T03:11:47;10.40;99.90
54680;DHT22;40578;53.178;5.846;2023-03-23T03:14:16;10.40;99.90
54680;DHT22;40578;53.178;5.846;2023-03-23T03:16:56;10.60;99.90
54680;DHT22;40578;53.178;5.846;2023-03-23T03:19:26;10.40;99.90
54680;DHT22;40578;53.178;5.846;2023-03-23T03:21:54;10.50;99.90
54680;DHT22;40578;53.178;5.846;2023-03-23T03:24:20;10.50;99.90
54680;DHT22;40578;53.178;5.846;2023-03-23T03:26:47;10.50;99.90
54680;DHT22;40578;53.178;5.846;2023-03-23T03:29:30;10.50;99.90
54680;DHT22;40578;53.178;5.846;2023-03-23T03:31:57;10.40;99.90
54680;DHT22;40578;53.178;5.846;2023-03-23T03:34:24;10.50;99.90
54680;DHT22;40578;53.178;5.846;2023-03-23T03:36:51;10.40;99.90
54680;DHT22;40578;53.178;5.846;2023-03-23T03:39:17;10.50;99.90
54680;DHT22;40578;53.178;5.846;2023-03-23T03:41:45;10.40;99.90
54680;DHT22;40578;53.178;5.846;2023-03-23T03:44:10;10.30;99.90
54680;DHT22;40578;53.178;5.846;2023-03-23T03:46:36;10.20;99.90
54680;DHT22;40578;53.178;5.846;2023-03-23T03:49:03;10.10;99.90
54680;DHT22;40578;53.178;5.846;2023-03-23T03:51:29;10.10;99.90
54680;DHT22;40578;53.178;5.846;2023-03-23T03:53:55;10.10;99.90
54680;DHT22;40578;53.178;5.846;2023-03-23T03:56:21;10.10;99.90
54680;DHT22;40578;53.178;5.846;2023-03-23T03:58:47;10.20;99.90
54680;DHT22;40578;53.178;5.846;2023-03-23T04:01:13;10.10;99.90
54680;DHT22;40578;53.178;5.846;2023-03-23T04:03:40;10.90;99.90
54680;DHT22;40578;53.178;5.846;2023-03-23T04:06:06;10.60;99.90
54680;DHT22;40578;53.178;5.846;2023-03-23T04:08:33;10.20;99.90
54680;DHT22;40578;53.178;5.846;2023-03-23T04:10:59;10.20;99.90
54680;DHT22;40578;53.178;5.846;2023-03-23T04:13:25;10.80;99.90
54680;DHT22;40578;53.178;5.846;2023-03-23T04:15:51;10.70;99.90
54680;DHT22;40578;53.178;5.846;2023-03-23T04:18:16;10.20;99.90
54680;DHT22;40578;53.178;5.846;2023-03-23T04:20:46;10.20;99.90
54680;DHT22;40578;53.178;5.846;2023-03-23T04:23:16;10.20;99.90
54680;DHT22;40578;53.178;5.846;2023-03-23T04:25:45;10.10;99.90
54680;DHT22;40578;53.178;5.846;2023-03-23T04:28:12;10.10;99.90
54680;DHT22;40578;53.178;5.846;2023-03-23T04:30:38;10.00;99.90
54680;DHT22;40578;53.178;5.846;2023-03-23T04:33:03;10.10;99.90
54680;DHT22;40578;53.178;5.846;2023-03-23T04:35:29;10.10;99.90
54680;DHT22;40578;53.178;5.846;2023-03-23T04:37:55;11.10;99.90
54680;DHT22;40578;53.178;5.846;2023-03-23T04:40:21;10.10;99.90
54680;DHT22;40578;53.178;5.846;2023-03-23T04:42:47;10.20;99.90
54680;DHT22;40578;53.178;5.846;2023-03-23T04:45:13;10.10;99.90
54680;DHT22;40578;53.178;5.846;2023-03-23T04:47:39;10.20;99.90
54680;DHT22;40578;53.178;5.846;2023-03-23T04:50:09;10.10;99.90
54680;DHT22;40578;53.178;5.846;2023-03-23T04:52:35;10.10;99.90
54680;DHT22;40578;53.178;5.846;2023-03-23T04:55:04;10.00;99.90
54680;DHT22;40578;53.178;5.846;2023-03-23T04:57:29;10.00;99.90
54680;DHT22;40578;53.178;5.846;2023-03-23T04:59:56;10.10;99.90
54680;DHT22;40578;53.178;5.846;2023-03-23T05:02:21;10.00;99.90
54680;DHT22;40578;53.178;5.846;2023-03-23T05:04:47;9.90;99.90
54680;DHT22;40578;53.178;5.846;2023-03-23T05:07:14;9.90;99.90
54680;DHT22;40578;53.178;5.846;2023-03-23T05:09:40;9.90;99.90
54680;DHT22;40578;53.178;5.846;2023-03-23T05:12:07;9.90;99.90
54680;DHT22;40578;53.178;5.846;2023-03-23T05:14:33;10.00;99.90
54680;DHT22;40578;53.178;5.846;2023-03-23T05:16:58;9.90;99.90
54680;DHT22;40578;53.178;5.846;2023-03-23T05:19:24;10.00;99.90
54680;DHT22;40578;53.178;5.846;2023-03-23T05:21:49;9.90;99.90
54680;DHT22;40578;53.178;5.846;2023-03-23T05:24:15;9.90;99.90
54680;DHT22;40578;53.178;5.846;2023-03-23T05:26:41;9.90;99.90
54680;DHT22;40578;53.178;5.846;2023-03-23T05:29:06;9.80;99.90
54680;DHT22;40578;53.178;5.846;2023-03-23T05:31:32;9.80;99.90
54680;DHT22;40578;53.178;5.846;2023-03-23T05:33:57;9.80;99.90
54680;DHT22;40578;53.178;5.846;2023-03-23T05:36:23;9.80;99.90
54680;DHT22;40578;53.178;5.846;2023-03-23T05:38:52;9.80;99.90
54680;DHT22;40578;53.178;5.846;2023-03-23T05:41:18;9.70;99.90
54680;DHT22;40578;53.178;5.846;2023-03-23T05:43:43;9.80;99.90
54680;DHT22;40578;53.178;5.846;2023-03-23T05:46:09;9.80;99.90
54680;DHT22;40578;53.178;5.846;2023-03-23T05:48:34;9.90;99.90
54680;DHT22;40578;53.178;5.846;2023-03-23T05:51:00;9.90;99.90
54680;DHT22;40578;53.178;5.846;2023-03-23T05:53:25;9.80;99.90
54680;DHT22;40578;53.178;5.846;2023-03-23T05:55:51;9.70;99.90
54680;DHT22;40578;53.178;5.846;2023-03-23T05:58:18;9.60;99.90
54680;DHT22;40578;53.178;5.846;2023-03-23T06:00:43;9.50;99.90
54680;DHT22;40578;53.178;5.846;2023-03-23T06:03:10;9.30;99.90
54680;DHT22;40578;53.178;5.846;2023-03-23T06:05:36;9.40;99.90
54680;DHT22;40578;53.178;5.846;2023-03-23T06:08:02;9.30;99.90
54680;DHT22;40578;53.178;5.846;2023-03-23T06:10:27;9.20;99.90
54680;DHT22;40578;53.178;5.846;2023-03-23T06:12:53;9.20;99.90
54680;DHT22;40578;53.178;5.846;2023-03-23T06:15:19;9.20;99.90
54680;DHT22;40578;53.178;5.846;2023-03-23T06:17:45;9.10;99.90
54680;DHT22;40578;53.178;5.846;2023-03-23T06:20:10;9.00;99.90
54680;DHT22;40578;53.178;5.846;2023-03-23T06:22:37;9.00;99.90
54680;DHT22;40578;53.178;5.846;2023-03-23T06:25:04;8.90;99.90
54680;DHT22;40578;53.178;5.846;2023-03-23T06:27:30;8.80;99.90
54680;DHT22;40578;53.178;5.846;2023-03-23T06:29:55;10.20;99.90
54680;DHT22;40578;53.178;5.846;2023-03-23T06:32:22;8.90;99.90
54680;DHT22;40578;53.178;5.846;2023-03-23T06:34:48;9.30;99.90
54680;DHT22;40578;53.178;5.846;2023-03-23T06:37:13;9.10;99.90
54680;DHT22;40578;53.178;5.846;2023-03-23T06:39:39;9.10;99.90
54680;DHT22;40578;53.178;5.846;2023-03-23T06:42:08;9.10;99.90
54680;DHT22;40578;53.178;5.846;2023-03-23T06:44:33;9.20;99.90
54680;DHT22;40578;53.178;5.846;2023-03-23T06:46:59;9.20;99.90
54680;DHT22;40578;53.178;5.846;2023-03-23T06:49:25;9.20;99.90
54680;DHT22;40578;53.178;5.846;2023-03-23T06:51:51;9.30;99.90
54680;DHT22;40578;53.178;5.846;2023-03-23T06:54:16;9.30;99.90
54680;DHT22;40578;53.178;5.846;2023-03-23T06:56:42;9.40;99.90
54680;DHT22;40578;53.178;5.846;2023-03-23T06:59:07;9.70;99.90
54680;DHT22;40578;53.178;5.846;2023-03-23T07:01:33;9.60;99.90
54680;DHT22;40578;53.178;5.846;2023-03-23T07:03:59;9.60;99.90
54680;DHT22;40578;53.178;5.846;2023-03-23T07:06:25;10.30;99.90
54680;DHT22;40578;53.178;5.846;2023-03-23T07:08:51;9.80;99.90
54680;DHT22;40578;53.178;5.846;2023-03-23T07:11:17;9.80;99.90
54680;DHT22;40578;53.178;5.846;2023-03-23T07:13:42;10.00;99.90
54680;DHT22;40578;53.178;5.846;2023-03-23T07:16:08;9.80;99.90
54680;DHT22;40578;53.178;5.846;2023-03-23T07:18:33;9.20;99.90
54680;DHT22;40578;53.178;5.846;2023-03-23T07:20:59;9.90;99.90
54680;DHT22;40578;53.178;5.846;2023-03-23T07:23:26;9.90;99.90
54680;DHT22;40578;53.178;5.846;2023-03-23T07:25:51;10.00;99.90
54680;DHT22;40578;53.178;5.846;2023-03-23T07:28:17;10.00;99.90
54680;DHT22;40578;53.178;5.846;2023-03-23T07:30:43;10.00;99.90
54680;DHT22;40578;53.178;5.846;2023-03-23T07:33:09;10.00;99.90
54680;DHT22;40578;53.178;5.846;2023-03-23T07:35:35;10.00;99.90
54680;DHT22;40578;53.178;5.846;2023-03-23T07:38:01;10.00;99.90
54680;DHT22;40578;53.178;5.846;2023-03-23T07:40:27;10.00;99.90
54680;DHT22;40578;53.178;5.846;2023-03-23T07:42:54;10.10;99.90
54680;DHT22;40578;53.178;5.846;2023-03-23T07:45:20;10.00;99.90
54680;DHT22;40578;53.178;5.846;2023-03-23T07:47:46;11.00;99.90
54680;DHT22;40578;53.178;5.846;2023-03-23T07:50:12;10.10;99.90
54680;DHT22;40578;53.178;5.846;2023-03-23T07:52:39;10.10;99.90
54680;DHT22;40578;53.178;5.846;2023-03-23T07:55:05;10.50;99.90
54680;DHT22;40578;53.178;5.846;2023-03-23T07:57:31;10.20;99.90
54680;DHT22;40578;53.178;5.846;2023-03-23T07:59:57;10.20;99.90
54680;DHT22;40578;53.178;5.846;2023-03-23T08:02:23;10.30;99.90
54680;DHT22;40578;53.178;5.846;2023-03-23T08:04:49;10.20;99.90
54680;DHT22;40578;53.178;5.846;2023-03-23T08:07:16;10.20;99.90
54680;DHT22;40578;53.178;5.846;2023-03-23T08:09:42;10.20;99.90
54680;DHT22;40578;53.178;5.846;2023-03-23T08:12:08;10.10;99.90
54680;DHT22;40578;53.178;5.846;2023-03-23T08:14:33;10.30;99.90
54680;DHT22;40578;53.178;5.846;2023-03-23T08:16:59;10.20;99.90
54680;DHT22;40578;53.178;5.846;2023-03-23T08:19:25;10.20;99.90
54680;DHT22;40578;53.178;5.846;2023-03-23T08:21:51;10.20;99.90
54680;DHT22;40578;53.178;5.846;2023-03-23T08:24:17;10.20;99.90
54680;DHT22;40578;53.178;5.846;2023-03-23T08:26:44;11.10;99.90
54680;DHT22;40578;53.178;5.846;2023-03-23T08:29:09;10.90;99.90
54680;DHT22;40578;53.178;5.846;2023-03-23T08:31:37;10.30;99.90
54680;DHT22;40578;53.178;5.846;2023-03-23T08:34:03;10.40;99.90
54680;DHT22;40578;53.178;5.846;2023-03-23T08:36:30;10.50;99.90
54680;DHT22;40578;53.178;5.846;2023-03-23T08:38:57;10.70;99.90
54680;DHT22;40578;53.178;5.846;2023-03-23T08:41:22;10.50;99.90
54680;DHT22;40578;53.178;5.846;2023-03-23T08:43:48;10.60;99.90
54680;DHT22;40578;53.178;5.846;2023-03-23T08:46:13;10.80;99.90
54680;DHT22;40578;53.178;5.846;2023-03-23T08:48:39;10.70;99.90
54680;DHT22;40578;53.178;5.846;2023-03-23T08:51:05;10.80;99.90
54680;DHT22;40578;53.178;5.846;2023-03-23T08:53:31;10.80;99.90
54680;DHT22;40578;53.178;5.846;2023-03-23T08:56:07;10.90;99.90
54680;DHT22;40578;53.178;5.846;2023-03-23T08:58:36;10.80;99.90
54680;DHT22;40578;53.178;5.846;2023-03-23T09:01:02;11.00;99.90
54680;DHT22;40578;53.178;5.846;2023-03-23T09:03:28;11.30;99.90
54680;DHT22;40578;53.178;5.846;2023-03-23T09:05:57;11.30;99.90
54680;DHT22;40578;53.178;5.846;2023-03-23T09:08:23;11.20;99.90
54680;DHT22;40578;53.178;5.846;2023-03-23T09:10:49;11.20;99.90
54680;DHT22;40578;53.178;5.846;2023-03-23T09:13:15;11.20;99.90
54680;DHT22;40578;53.178;5.846;2023-03-23T09:15:40;11.20;99.90
54680;DHT22;40578;53.178;5.846;2023-03-23T09:18:06;11.20;99.90
54680;DHT22;40578;53.178;5.846;2023-03-23T09:20:32;11.20;99.90
54680;DHT22;40578;53.178;5.846;2023-03-23T09:22:57;11.20;99.90
54680;DHT22;40578;53.178;5.846;2023-03-23T09:25:24;11.50;99.90
54680;DHT22;40578;53.178;5.846;2023-03-23T09:27:51;11.30;99.90
54680;DHT22;40578;53.178;5.846;2023-03-23T09:30:25;11.00;99.90
54680;DHT22;40578;53.178;5.846;2023-03-23T09:32:52;11.20;99.90
54680;DHT22;40578;53.178;5.846;2023-03-23T09:35:18;11.40;99.90
54680;DHT22;40578;53.178;5.846;2023-03-23T09:37:47;11.10;99.90
54680;DHT22;40578;53.178;5.846;2023-03-23T09:40:56;11.20;99.90
54680;DHT22;40578;53.178;5.846;2023-03-23T09:45:37;11.40;99.90
54680;DHT22;40578;53.178;5.846;2023-03-23T09:50:30;11.50;99.90
54680;DHT22;40578;53.178;5.846;2023-03-23T09:53:00;12.70;99.90
54680;DHT22;40578;53.178;5.846;2023-03-23T09:55:27;11.60;99.90
54680;DHT22;40578;53.178;5.846;2023-03-23T09:58:10;11.50;99.90
54680;DHT22;40578;53.178;5.846;2023-03-23T10:00:48;11.50;99.90
54680;DHT22;40578;53.178;5.846;2023-03-23T10:03:16;11.50;99.90
54680;DHT22;40578;53.178;5.846;2023-03-23T10:05:46;11.50;99.90
54680;DHT22;40578;53.178;5.846;2023-03-23T10:08:17;11.70;99.90
54680;DHT22;40578;53.178;5.846;2023-03-23T10:13:19;11.90;99.90
54680;DHT22;40578;53.178;5.846;2023-03-23T10:15:48;11.90;99.90
54680;DHT22;40578;53.178;5.846;2023-03-23T10:21:00;11.80;99.90
54680;DHT22;40578;53.178;5.846;2023-03-23T10:28:41;11.30;99.90
54680;DHT22;40578;53.178;5.846;2023-03-23T10:31:10;12.10;99.90
54680;DHT22;40578;53.178;5.846;2023-03-23T10:33:38;11.50;99.90
54680;DHT22;40578;53.178;5.846;2023-03-23T10:36:07;11.70;99.90
54680;DHT22;40578;53.178;5.846;2023-03-23T10:38:39;11.80;99.90
54680;DHT22;40578;53.178;5.846;2023-03-23T10:41:11;11.80;99.90
54680;DHT22;40578;53.178;5.846;2023-03-23T10:43:39;11.90;99.90
54680;DHT22;40578;53.178;5.846;2023-03-23T10:46:09;11.90;99.90
54680;DHT22;40578;53.178;5.846;2023-03-23T10:48:37;12.10;99.90
54680;DHT22;40578;53.178;5.846;2023-03-23T10:51:04;12.20;99.90
54680;DHT22;40578;53.178;5.846;2023-03-23T10:53:50;12.30;99.90
54680;DHT22;40578;53.178;5.846;2023-03-23T10:56:21;12.50;99.90
54680;DHT22;40578;53.178;5.846;2023-03-23T10:58:47;12.40;99.90
54680;DHT22;40578;53.178;5.846;2023-03-23T11:01:13;13.20;99.90
54680;DHT22;40578;53.178;5.846;2023-03-23T11:03:42;13.30;99.90
54680;DHT22;40578;53.178;5.846;2023-03-23T11:06:10;12.20;99.90
54680;DHT22;40578;53.178;5.846;2023-03-23T11:13:44;11.90;99.90
54680;DHT22;40578;53.178;5.846;2023-03-23T11:16:09;12.10;99.90
54680;DHT22;40578;53.178;5.846;2023-03-23T11:18:40;12.20;99.90
54680;DHT22;40578;53.178;5.846;2023-03-23T11:21:08;12.30;99.90
54680;DHT22;40578;53.178;5.846;2023-03-23T11:23:36;12.40;99.90
54680;DHT22;40578;53.178;5.846;2023-03-23T11:31:24;12.40;99.90
54680;DHT22;40578;53.178;5.846;2023-03-23T11:36:17;12.80;99.90
54680;DHT22;40578;53.178;5.846;2023-03-23T11:38:43;12.90;99.90
54680;DHT22;40578;53.178;5.846;2023-03-23T11:41:10;12.70;99.90
54680;DHT22;40578;53.178;5.846;2023-03-23T11:43:39;12.80;99.90
54680;DHT22;40578;53.178;5.846;2023-03-23T11:46:14;13.00;99.90
54680;DHT22;40578;53.178;5.846;2023-03-23T11:51:34;12.50;99.90
54680;DHT22;40578;53.178;5.846;2023-03-23T11:54:21;12.70;99.90
54680;DHT22;40578;53.178;5.846;2023-03-23T11:56:49;12.80;99.90
54680;DHT22;40578;53.178;5.846;2023-03-23T11:59:16;13.00;99.90
54680;DHT22;40578;53.178;5.846;2023-03-23T12:01:46;13.00;99.90
54680;DHT22;40578;53.178;5.846;2023-03-23T12:06:51;13.30;99.90
54680;DHT22;40578;53.178;5.846;2023-03-23T12:11:57;13.40;99.90
54680;DHT22;40578;53.178;5.846;2023-03-23T12:25:08;13.50;99.90
54680;DHT22;40578;53.178;5.846;2023-03-23T12:27:42;13.60;99.90
54680;DHT22;40578;53.178;5.846;2023-03-23T12:42:40;13.60;99.90
54680;DHT22;40578;53.178;5.846;2023-03-23T12:47:45;13.30;99.90
54680;DHT22;40578;53.178;5.846;2023-03-23T12:50:17;13.30;99.90
54680;DHT22;40578;53.178;5.846;2023-03-23T12:55:20;13.30;99.90
54680;DHT22;40578;53.178;5.846;2023-03-23T12:57:59;13.20;99.90
54680;DHT22;40578;53.178;5.846;2023-03-23T13:00:28;13.40;99.90
54680;DHT22;40578;53.178;5.846;2023-03-23T13:05:47;13.70;99.90
54680;DHT22;40578;53.178;5.846;2023-03-23T13:08:25;13.80;99.90
54680;DHT22;40578;53.178;5.846;2023-03-23T13:10:53;13.90;99.90
54680;DHT22;40578;53.178;5.846;2023-03-23T13:13:24;14.00;99.90
54680;DHT22;40578;53.178;5.846;2023-03-23T13:15:56;14.00;99.90
54680;DHT22;40578;53.178;5.846;2023-03-23T13:23:31;14.00;99.90
54680;DHT22;40578;53.178;5.846;2023-03-23T13:26:13;13.80;99.90
54680;DHT22;40578;53.178;5.846;2023-03-23T13:29:01;13.60;99.90
54680;DHT22;40578;53.178;5.846;2023-03-23T13:36:33;13.90;99.90
54680;DHT22;40578;53.178;5.846;2023-03-23T13:38:59;13.90;99.90
54680;DHT22;40578;53.178;5.846;2023-03-23T13:41:25;14.00;99.90
54680;DHT22;40578;53.178;5.846;2023-03-23T13:44:04;14.00;99.90
54680;DHT22;40578;53.178;5.846;2023-03-23T13:46:30;13.90;99.90
54680;DHT22;40578;53.178;5.846;2023-03-23T13:49:04;14.00;99.90
54680;DHT22;40578;53.178;5.846;2023-03-23T13:54:18;13.60;99.90
54680;DHT22;40578;53.178;5.846;2023-03-23T13:56:57;14.00;99.90
54680;DHT22;40578;53.178;5.846;2023-03-23T14:01:53;14.10;99.90
54680;DHT22;40578;53.178;5.846;2023-03-23T14:04:19;14.50;99.90
54680;DHT22;40578;53.178;5.846;2023-03-23T14:06:48;14.20;99.90
54680;DHT22;40578;53.178;5.846;2023-03-23T14:09:25;14.00;99.90
54680;DHT22;40578;53.178;5.846;2023-03-23T14:11:55;14.00;99.90
54680;DHT22;40578;53.178;5.846;2023-03-23T14:16:51;14.30;99.90
54680;DHT22;40578;53.178;5.846;2023-03-23T14:19:23;14.30;99.90
54680;DHT22;40578;53.178;5.846;2023-03-23T14:21:59;14.30;99.90
54680;DHT22;40578;53.178;5.846;2023-03-23T14:24:29;14.40;99.90
54680;DHT22;40578;53.178;5.846;2023-03-23T14:27:03;14.20;99.90
54680;DHT22;40578;53.178;5.846;2023-03-23T14:29:33;14.10;99.90
54680;DHT22;40578;53.178;5.846;2023-03-23T14:31:59;14.40;99.90
54680;DHT22;40578;53.178;5.846;2023-03-23T14:34:25;14.10;99.90
54680;DHT22;40578;53.178;5.846;2023-03-23T14:36:52;14.10;99.90
54680;DHT22;40578;53.178;5.846;2023-03-23T14:39:22;14.20;99.90
54680;DHT22;40578;53.178;5.846;2023-03-23T14:41:48;14.20;99.90
54680;DHT22;40578;53.178;5.846;2023-03-23T14:44:20;14.20;99.90
54680;DHT22;40578;53.178;5.846;2023-03-23T14:46:46;14.20;99.90
54680;DHT22;40578;53.178;5.846;2023-03-23T14:49:18;14.10;99.90
54680;DHT22;40578;53.178;5.846;2023-03-23T14:51:48;14.10;99.90
54680;DHT22;40578;53.178;5.846;2023-03-23T14:54:14;14.10;99.90
54680;DHT22;40578;53.178;5.846;2023-03-23T14:56:40;14.90;99.90
54680;DHT22;40578;53.178;5.846;2023-03-23T14:59:06;14.10;99.90
54680;DHT22;40578;53.178;5.846;2023-03-23T15:01:34;14.30;99.90
54680;DHT22;40578;53.178;5.846;2023-03-23T15:06:26;14.30;99.90
54680;DHT22;40578;53.178;5.846;2023-03-23T15:08:53;14.20;99.90
54680;DHT22;40578;53.178;5.846;2023-03-23T15:13:46;14.20;99.90
54680;DHT22;40578;53.178;5.846;2023-03-23T15:16:14;14.40;99.90
54680;DHT22;40578;53.178;5.846;2023-03-23T15:18:45;14.00;99.90
54680;DHT22;40578;53.178;5.846;2023-03-23T15:21:19;13.90;99.90
54680;DHT22;40578;53.178;5.846;2023-03-23T15:23:46;13.90;99.90
54680;DHT22;40578;53.178;5.846;2023-03-23T15:26:25;13.90;99.90
54680;DHT22;40578;53.178;5.846;2023-03-23T15:29:00;13.90;99.90
54680;DHT22;40578;53.178;5.846;2023-03-23T15:31:28;13.80;99.90
54680;DHT22;40578;53.178;5.846;2023-03-23T15:34:02;13.80;99.90
54680;DHT22;40578;53.178;5.846;2023-03-23T15:36:31;13.80;99.90
54680;DHT22;40578;53.178;5.846;2023-03-23T15:38:57;13.80;99.90
54680;DHT22;40578;53.178;5.846;2023-03-23T15:41:24;13.90;99.90
54680;DHT22;40578;53.178;5.846;2023-03-23T15:43:51;13.80;99.90
54680;DHT22;40578;53.178;5.846;2023-03-23T15:48:47;13.90;99.90
54680;DHT22;40578;53.178;5.846;2023-03-23T15:51:13;13.70;99.90
54680;DHT22;40578;53.178;5.846;2023-03-23T15:53:39;13.70;99.90
54680;DHT22;40578;53.178;5.846;2023-03-23T15:56:06;13.60;99.90
54680;DHT22;40578;53.178;5.846;2023-03-23T15:58:32;13.50;99.90
54680;DHT22;40578;53.178;5.846;2023-03-23T16:00:57;13.40;99.90
54680;DHT22;40578;53.178;5.846;2023-03-23T16:03:25;13.40;99.90
54680;DHT22;40578;53.178;5.846;2023-03-23T16:05:52;13.40;99.90
54680;DHT22;40578;53.178;5.846;2023-03-23T16:08:18;13.20;99.90
54680;DHT22;40578;53.178;5.846;2023-03-23T16:10:43;13.20;99.90
54680;DHT22;40578;53.178;5.846;2023-03-23T16:13:09;13.10;99.90
54680;DHT22;40578;53.178;5.846;2023-03-23T16:15:35;13.10;99.90
54680;DHT22;40578;53.178;5.846;2023-03-23T16:18:01;13.20;99.90
54680;DHT22;40578;53.178;5.846;2023-03-23T16:20:27;13.20;99.90
54680;DHT22;40578;53.178;5.846;2023-03-23T16:22:53;13.20;99.90
54680;DHT22;40578;53.178;5.846;2023-03-23T16:25:19;13.20;99.90
54680;DHT22;40578;53.178;5.846;2023-03-23T16:27:46;13.20;99.90
54680;DHT22;40578;53.178;5.846;2023-03-23T16:32:41;13.10;99.90
54680;DHT22;40578;53.178;5.846;2023-03-23T16:35:07;13.00;99.90
54680;DHT22;40578;53.178;5.846;2023-03-23T16:37:33;12.90;99.90
54680;DHT22;40578;53.178;5.846;2023-03-23T16:39:59;12.90;99.90
54680;DHT22;40578;53.178;5.846;2023-03-23T16:42:25;12.80;99.90
54680;DHT22;40578;53.178;5.846;2023-03-23T16:44:50;12.80;99.90
54680;DHT22;40578;53.178;5.846;2023-03-23T16:47:16;12.80;99.90
54680;DHT22;40578;53.178;5.846;2023-03-23T16:49:43;12.80;99.90
54680;DHT22;40578;53.178;5.846;2023-03-23T16:52:09;13.40;99.90
54680;DHT22;40578;53.178;5.846;2023-03-23T16:54:34;12.80;99.90
54680;DHT22;40578;53.178;5.846;2023-03-23T16:57:00;12.60;99.90
54680;DHT22;40578;53.178;5.846;2023-03-23T16:59:27;12.70;99.90
54680;DHT22;40578;53.178;5.846;2023-03-23T17:01:52;13.70;99.90
54680;DHT22;40578;53.178;5.846;2023-03-23T17:04:18;12.60;99.90
54680;DHT22;40578;53.178;5.846;2023-03-23T17:06:43;12.60;99.90
54680;DHT22;40578;53.178;5.846;2023-03-23T17:09:10;12.60;99.90
54680;DHT22;40578;53.178;5.846;2023-03-23T17:11:35;12.50;99.90
54680;DHT22;40578;53.178;5.846;2023-03-23T17:14:01;12.40;99.90
54680;DHT22;40578;53.178;5.846;2023-03-23T17:16:26;12.40;99.90
54680;DHT22;40578;53.178;5.846;2023-03-23T17:18:52;12.80;99.90
54680;DHT22;40578;53.178;5.846;2023-03-23T17:21:17;12.30;99.90
54680;DHT22;40578;53.178;5.846;2023-03-23T17:23:44;12.40;99.90
54680;DHT22;40578;53.178;5.846;2023-03-23T17:26:10;12.30;99.90